sensor_id;sensor_type;location;lat;lon;timestamp;temperature;humidity
72772;SHT30;60894;42.544;1.516;2023-07-31T00:01:19;19.23;68.60
72772;SHT30;60894;42.544;1.516;2023-07-31T00:03:47;19.19;68.78
72772;SHT30;60894;42.544;1.516;2023-07-31T00:06:15;19.25;68.64
72772;SHT30;60894;42.544;1.516;2023-07-31T00:08:42;19.21;69.14
72772;SHT30;60894;42.544;1.516;2023-07-31T00:11:09;19.18;70.10
72772;SHT30;60894;42.544;1.516;2023-07-31T00:13:36;19.28;68.92
72772;SHT30;60894;42.544;1.516;2023-07-31T00:16:03;19.12;68.88
72772;SHT30;60894;42.544;1.516;2023-07-31T00:18:30;19.18;69.09
72772;SHT30;60894;42.544;1.516;2023-07-31T00:20:57;19.22;68.49
72772;SHT30;60894;42.544;1.516;2023-07-31T00:23:26;19.33;68.24
72772;SHT30;60894;42.544;1.516;2023-07-31T00:25:53;19.12;69.02
72772;SHT30;60894;42.544;1.516;2023-07-31T00:28:20;19.52;68.15
72772;SHT30;60894;42.544;1.516;2023-07-31T00:30:47;19.50;68.23
72772;SHT30;60894;42.544;1.516;2023-07-31T00:33:14;19.84;67.09
72772;SHT30;60894;42.544;1.516;2023-07-31T00:35:41;19.82;67.36
72772;SHT30;60894;42.544;1.516;2023-07-31T00:38:08;19.90;67.31
72772;SHT30;60894;42.544;1.516;2023-07-31T00:40:37;19.91;67.31
72772;SHT30;60894;42.544;1.516;2023-07-31T00:43:04;19.96;66.96
72772;SHT30;60894;42.544;1.516;2023-07-31T00:45:31;19.72;66.85
72772;SHT30;60894;42.544;1.516;2023-07-31T00:47:59;19.55;66.98
72772;SHT30;60894;42.544;1.516;2023-07-31T00:50:27;19.36;68.10
72772;SHT30;60894;42.544;1.516;2023-07-31T00:52:55;19.31;68.41
72772;SHT30;60894;42.544;1.516;2023-07-31T00:55:22;19.12;68.65
72772;SHT30;60894;42.544;1.516;2023-07-31T00:57:51;18.98;69.09
72772;SHT30;60894;42.544;1.516;2023-07-31T01:00:21;18.91;69.32
72772;SHT30;60894;42.544;1.516;2023-07-31T01:02:49;18.65;70.59
72772;SHT30;60894;42.544;1.516;2023-07-31T01:05:20;18.74;70.57
72772;SHT30;60894;42.544;1.516;2023-07-31T01:07:56;19.08;69.80
72772;SHT30;60894;42.544;1.516;2023-07-31T01:10:26;19.29;68.05
72772;SHT30;60894;42.544;1.516;2023-07-31T01:12:58;19.04;68.50
72772;SHT30;60894;42.544;1.516;2023-07-31T01:15:25;18.98;69.04
72772;SHT30;60894;42.544;1.516;2023-07-31T01:17:52;19.15;69.23
72772;SHT30;60894;42.544;1.516;2023-07-31T01:20:22;19.11;68.72
72772;SHT30;60894;42.544;1.516;2023-07-31T01:26:07;18.94;69.58
72772;SHT30;60894;42.544;1.516;2023-07-31T01:28:46;19.25;68.92
72772;SHT30;60894;42.544;1.516;2023-07-31T01:31:16;19.42;68.13
72772;SHT30;60894;42.544;1.516;2023-07-31T01:33:45;19.62;66.99
72772;SHT30;60894;42.544;1.516;2023-07-31T01:36:13;19.35;68.64
72772;SHT30;60894;42.544;1.516;2023-07-31T01:38:40;19.25;68.82
72772;SHT30;60894;42.544;1.516;2023-07-31T01:41:09;19.25;68.40
72772;SHT30;60894;42.544;1.516;2023-07-31T01:43:36;19.53;67.78
72772;SHT30;60894;42.544;1.516;2023-07-31T01:46:03;19.69;67.12
72772;SHT30;60894;42.544;1.516;2023-07-31T01:48:30;19.69;67.20
72772;SHT30;60894;42.544;1.516;2023-07-31T01:51:01;19.48;67.81
72772;SHT30;60894;42.544;1.516;2023-07-31T01:53:28;19.36;67.76
72772;SHT30;60894;42.544;1.516;2023-07-31T01:55:55;19.25;68.87
72772;SHT30;60894;42.544;1.516;2023-07-31T01:58:24;18.91;70.03
72772;SHT30;60894;42.544;1.516;2023-07-31T02:00:51;19.12;69.19
72772;SHT30;60894;42.544;1.516;2023-07-31T02:03:18;19.05;69.77
72772;SHT30;60894;42.544;1.516;2023-07-31T02:05:45;19.16;68.96
72772;SHT30;60894;42.544;1.516;2023-07-31T02:08:12;18.98;69.89
72772;SHT30;60894;42.544;1.516;2023-07-31T02:10:39;19.16;69.30
72772;SHT30;60894;42.544;1.516;2023-07-31T02:13:06;19.22;69.21
72772;SHT30;60894;42.544;1.516;2023-07-31T02:15:35;19.23;68.73
72772;SHT30;60894;42.544;1.516;2023-07-31T02:18:02;19.52;67.50
72772;SHT30;60894;42.544;1.516;2023-07-31T02:20:29;19.38;68.27
72772;SHT30;60894;42.544;1.516;2023-07-31T02:22:56;19.19;68.57
72772;SHT30;60894;42.544;1.516;2023-07-31T02:25:23;19.48;67.53
72772;SHT30;60894;42.544;1.516;2023-07-31T02:27:50;19.45;67.60
72772;SHT30;60894;42.544;1.516;2023-07-31T02:30:17;19.70;67.22
72772;SHT30;60894;42.544;1.516;2023-07-31T02:32:46;19.01;69.21
72772;SHT30;60894;42.544;1.516;2023-07-31T02:35:13;19.48;67.28
72772;SHT30;60894;42.544;1.516;2023-07-31T02:37:41;19.04;68.32
72772;SHT30;60894;42.544;1.516;2023-07-31T02:40:08;19.18;68.47
72772;SHT30;60894;42.544;1.516;2023-07-31T02:42:35;18.88;69.67
72772;SHT30;60894;42.544;1.516;2023-07-31T02:45:03;19.22;67.78
72772;SHT30;60894;42.544;1.516;2023-07-31T02:47:30;18.98;69.00
72772;SHT30;60894;42.544;1.516;2023-07-31T02:49:59;19.36;67.54
72772;SHT30;60894;42.544;1.516;2023-07-31T02:52:26;19.16;68.16
72772;SHT30;60894;42.544;1.516;2023-07-31T02:54:53;19.21;68.37
72772;SHT30;60894;42.544;1.516;2023-07-31T02:57:21;19.31;67.48
72772;SHT30;60894;42.544;1.516;2023-07-31T02:59:48;19.00;69.06
72772;SHT30;60894;42.544;1.516;2023-07-31T03:02:15;18.98;68.71
72772;SHT30;60894;42.544;1.516;2023-07-31T03:04:43;18.97;68.79
72772;SHT30;60894;42.544;1.516;2023-07-31T03:07:11;18.90;68.53
72772;SHT30;60894;42.544;1.516;2023-07-31T03:09:38;18.90;69.23
72772;SHT30;60894;42.544;1.516;2023-07-31T03:12:06;19.19;67.88
72772;SHT30;60894;42.544;1.516;2023-07-31T03:14:33;19.11;68.56
72772;SHT30;60894;42.544;1.516;2023-07-31T03:17:00;19.16;67.80
72772;SHT30;60894;42.544;1.516;2023-07-31T03:19:30;19.04;68.02
72772;SHT30;60894;42.544;1.516;2023-07-31T03:21:57;19.15;67.90
72772;SHT30;60894;42.544;1.516;2023-07-31T03:24:25;19.10;67.90
72772;SHT30;60894;42.544;1.516;2023-07-31T03:26:52;18.98;68.46
72772;SHT30;60894;42.544;1.516;2023-07-31T03:29:19;18.72;69.19
72772;SHT30;60894;42.544;1.516;2023-07-31T03:31:46;18.64;69.67
72772;SHT30;60894;42.544;1.516;2023-07-31T03:34:14;18.72;69.02
72772;SHT30;60894;42.544;1.516;2023-07-31T03:36:41;18.53;69.65
72772;SHT30;60894;42.544;1.516;2023-07-31T03:39:08;18.80;68.59
72772;SHT30;60894;42.544;1.516;2023-07-31T03:41:36;19.00;68.39
72772;SHT30;60894;42.544;1.516;2023-07-31T03:44:02;18.87;68.87
72772;SHT30;60894;42.544;1.516;2023-07-31T03:46:29;18.78;68.68
72772;SHT30;60894;42.544;1.516;2023-07-31T03:48:57;18.94;68.31
72772;SHT30;60894;42.544;1.516;2023-07-31T03:51:24;19.12;67.47
72772;SHT30;60894;42.544;1.516;2023-07-31T03:53:51;19.28;66.93
72772;SHT30;60894;42.544;1.516;2023-07-31T03:56:18;18.88;67.91
72772;SHT30;60894;42.544;1.516;2023-07-31T03:58:46;18.64;68.49
72772;SHT30;60894;42.544;1.516;2023-07-31T04:01:13;18.72;68.49
72772;SHT30;60894;42.544;1.516;2023-07-31T04:03:40;18.77;68.30
72772;SHT30;60894;42.544;1.516;2023-07-31T04:06:07;19.07;67.14
72772;SHT30;60894;42.544;1.516;2023-07-31T04:08:34;18.72;68.25
72772;SHT30;60894;42.544;1.516;2023-07-31T04:11:01;18.84;68.10
72772;SHT30;60894;42.544;1.516;2023-07-31T04:13:29;18.75;68.45
72772;SHT30;60894;42.544;1.516;2023-07-31T04:15:58;18.74;68.01
72772;SHT30;60894;42.544;1.516;2023-07-31T04:18:25;18.22;69.61
72772;SHT30;60894;42.544;1.516;2023-07-31T04:20:52;18.19;69.56
72772;SHT30;60894;42.544;1.516;2023-07-31T04:23:19;18.43;69.02
72772;SHT30;60894;42.544;1.516;2023-07-31T04:25:46;18.72;68.08
72772;SHT30;60894;42.544;1.516;2023-07-31T04:28:13;18.91;67.19
72772;SHT30;60894;42.544;1.516;2023-07-31T04:30:40;19.01;67.06
72772;SHT30;60894;42.544;1.516;2023-07-31T04:33:08;18.41;69.14
72772;SHT30;60894;42.544;1.516;2023-07-31T04:35:35;18.39;68.56
72772;SHT30;60894;42.544;1.516;2023-07-31T04:38:02;18.57;68.00
72772;SHT30;60894;42.544;1.516;2023-07-31T04:40:29;18.61;68.03
72772;SHT30;60894;42.544;1.516;2023-07-31T04:42:56;18.56;67.99
72772;SHT30;60894;42.544;1.516;2023-07-31T04:45:23;18.54;67.57
72772;SHT30;60894;42.544;1.516;2023-07-31T04:47:51;18.29;69.03
72772;SHT30;60894;42.544;1.516;2023-07-31T04:50:19;18.09;69.34
72772;SHT30;60894;42.544;1.516;2023-07-31T04:52:46;18.16;69.54
72772;SHT30;60894;42.544;1.516;2023-07-31T04:55:13;18.25;69.32
72772;SHT30;60894;42.544;1.516;2023-07-31T04:57:40;18.53;68.08
72772;SHT30;60894;42.544;1.516;2023-07-31T05:00:08;18.29;68.73
72772;SHT30;60894;42.544;1.516;2023-07-31T05:02:35;18.20;68.88
72772;SHT30;60894;42.544;1.516;2023-07-31T05:05:03;17.69;70.24
72772;SHT30;60894;42.544;1.516;2023-07-31T05:07:31;17.41;71.27
72772;SHT30;60894;42.544;1.516;2023-07-31T05:09:58;17.79;70.45
72772;SHT30;60894;42.544;1.516;2023-07-31T05:12:25;17.55;70.92
72772;SHT30;60894;42.544;1.516;2023-07-31T05:14:52;17.47;71.28
72772;SHT30;60894;42.544;1.516;2023-07-31T05:17:19;17.92;69.70
72772;SHT30;60894;42.544;1.516;2023-07-31T05:19:46;17.78;70.22
72772;SHT30;60894;42.544;1.516;2023-07-31T05:22:13;17.47;71.20
72772;SHT30;60894;42.544;1.516;2023-07-31T05:24:43;17.71;70.42
72772;SHT30;60894;42.544;1.516;2023-07-31T05:27:10;17.96;69.77
72772;SHT30;60894;42.544;1.516;2023-07-31T05:29:38;18.14;68.69
72772;SHT30;60894;42.544;1.516;2023-07-31T05:32:07;18.49;67.72
72772;SHT30;60894;42.544;1.516;2023-07-31T05:34:34;17.93;69.01
72772;SHT30;60894;42.544;1.516;2023-07-31T05:37:01;17.81;69.66
72772;SHT30;60894;42.544;1.516;2023-07-31T05:39:28;17.77;69.98
72772;SHT30;60894;42.544;1.516;2023-07-31T05:41:57;18.03;68.98
72772;SHT30;60894;42.544;1.516;2023-07-31T05:44:24;17.79;69.80
72772;SHT30;60894;42.544;1.516;2023-07-31T05:46:51;17.75;69.86
72772;SHT30;60894;42.544;1.516;2023-07-31T05:49:18;17.50;70.58
72772;SHT30;60894;42.544;1.516;2023-07-31T05:51:45;17.99;68.95
72772;SHT30;60894;42.544;1.516;2023-07-31T05:54:12;17.45;70.27
72772;SHT30;60894;42.544;1.516;2023-07-31T05:56:39;17.64;70.00
72772;SHT30;60894;42.544;1.516;2023-07-31T05:59:08;18.23;67.68
72772;SHT30;60894;42.544;1.516;2023-07-31T06:01:36;18.34;67.62
72772;SHT30;60894;42.544;1.516;2023-07-31T06:04:03;18.28;67.45
72772;SHT30;60894;42.544;1.516;2023-07-31T06:06:30;18.17;68.43
72772;SHT30;60894;42.544;1.516;2023-07-31T06:08:57;18.02;68.31
72772;SHT30;60894;42.544;1.516;2023-07-31T06:11:24;18.16;68.00
72772;SHT30;60894;42.544;1.516;2023-07-31T06:13:51;18.06;68.73
72772;SHT30;60894;42.544;1.516;2023-07-31T06:16:19;18.05;68.56
72772;SHT30;60894;42.544;1.516;2023-07-31T06:18:47;18.10;68.15
72772;SHT30;60894;42.544;1.516;2023-07-31T06:21:14;17.85;69.40
72772;SHT30;60894;42.544;1.516;2023-07-31T06:23:41;17.44;70.58
72772;SHT30;60894;42.544;1.516;2023-07-31T06:26:08;17.35;70.66
72772;SHT30;60894;42.544;1.516;2023-07-31T06:28:35;17.24;71.33
72772;SHT30;60894;42.544;1.516;2023-07-31T06:31:02;17.47;70.88
72772;SHT30;60894;42.544;1.516;2023-07-31T06:33:31;17.54;70.32
72772;SHT30;60894;42.544;1.516;2023-07-31T06:35:58;17.90;69.17
72772;SHT30;60894;42.544;1.516;2023-07-31T06:38:26;18.09;68.47
72772;SHT30;60894;42.544;1.516;2023-07-31T06:40:53;18.22;68.06
72772;SHT30;60894;42.544;1.516;2023-07-31T06:43:20;18.25;68.24
72772;SHT30;60894;42.544;1.516;2023-07-31T06:45:47;18.33;68.16
72772;SHT30;60894;42.544;1.516;2023-07-31T06:48:16;18.16;68.66
72772;SHT30;60894;42.544;1.516;2023-07-31T06:50:45;18.06;69.21
72772;SHT30;60894;42.544;1.516;2023-07-31T06:53:12;18.05;69.19
72772;SHT30;60894;42.544;1.516;2023-07-31T06:55:39;18.34;67.84
72772;SHT30;60894;42.544;1.516;2023-07-31T06:58:06;18.28;68.37
72772;SHT30;60894;42.544;1.516;2023-07-31T07:00:33;18.34;67.80
72772;SHT30;60894;42.544;1.516;2023-07-31T07:03:00;18.34;67.67
72772;SHT30;60894;42.544;1.516;2023-07-31T07:05:27;18.53;67.17
72772;SHT30;60894;42.544;1.516;2023-07-31T07:07:56;18.61;67.14
72772;SHT30;60894;42.544;1.516;2023-07-31T07:10:23;18.68;66.93
72772;SHT30;60894;42.544;1.516;2023-07-31T07:12:50;18.92;66.09
72772;SHT30;60894;42.544;1.516;2023-07-31T07:15:17;18.98;65.28
72772;SHT30;60894;42.544;1.516;2023-07-31T07:17:44;19.15;64.97
72772;SHT30;60894;42.544;1.516;2023-07-31T07:20:11;19.12;64.69
72772;SHT30;60894;42.544;1.516;2023-07-31T07:22:38;19.05;64.82
72772;SHT30;60894;42.544;1.516;2023-07-31T07:25:10;19.14;64.66
72772;SHT30;60894;42.544;1.516;2023-07-31T07:27:37;19.25;64.04
72772;SHT30;60894;42.544;1.516;2023-07-31T07:30:05;19.32;63.81
72772;SHT30;60894;42.544;1.516;2023-07-31T07:32:32;19.33;64.00
72772;SHT30;60894;42.544;1.516;2023-07-31T07:34:59;19.31;63.88
72772;SHT30;60894;42.544;1.516;2023-07-31T07:37:26;19.33;63.12
72772;SHT30;60894;42.544;1.516;2023-07-31T07:39:53;19.48;62.63
72772;SHT30;60894;42.544;1.516;2023-07-31T07:42:22;19.60;61.44
72772;SHT30;60894;42.544;1.516;2023-07-31T07:44:49;19.62;61.14
72772;SHT30;60894;42.544;1.516;2023-07-31T07:47:16;19.72;60.86
72772;SHT30;60894;42.544;1.516;2023-07-31T07:49:43;19.82;60.78
72772;SHT30;60894;42.544;1.516;2023-07-31T07:52:10;19.94;60.21
72772;SHT30;60894;42.544;1.516;2023-07-31T07:54:37;20.07;61.01
72772;SHT30;60894;42.544;1.516;2023-07-31T07:57:04;20.14;61.75
72772;SHT30;60894;42.544;1.516;2023-07-31T07:59:33;20.24;61.12
72772;SHT30;60894;42.544;1.516;2023-07-31T08:02:00;20.34;61.49
72772;SHT30;60894;42.544;1.516;2023-07-31T08:04:27;20.35;61.82
72772;SHT30;60894;42.544;1.516;2023-07-31T08:06:54;20.38;61.83
72772;SHT30;60894;42.544;1.516;2023-07-31T08:09:21;20.47;61.26
72772;SHT30;60894;42.544;1.516;2023-07-31T08:11:48;20.56;61.50
72772;SHT30;60894;42.544;1.516;2023-07-31T08:14:15;20.69;61.06
72772;SHT30;60894;42.544;1.516;2023-07-31T08:16:44;20.75;60.36
72772;SHT30;60894;42.544;1.516;2023-07-31T08:19:11;20.76;59.99
72772;SHT30;60894;42.544;1.516;2023-07-31T08:21:38;20.88;60.36
72772;SHT30;60894;42.544;1.516;2023-07-31T08:24:05;21.07;60.62
72772;SHT30;60894;42.544;1.516;2023-07-31T08:26:33;21.14;60.87
72772;SHT30;60894;42.544;1.516;2023-07-31T08:29:00;21.22;60.22
72772;SHT30;60894;42.544;1.516;2023-07-31T08:31:27;21.24;59.90
72772;SHT30;60894;42.544;1.516;2023-07-31T08:33:56;21.30;58.10
72772;SHT30;60894;42.544;1.516;2023-07-31T08:36:23;21.44;57.22
72772;SHT30;60894;42.544;1.516;2023-07-31T08:38:50;21.55;55.30
72772;SHT30;60894;42.544;1.516;2023-07-31T08:41:17;21.65;53.98
72772;SHT30;60894;42.544;1.516;2023-07-31T08:43:45;21.78;52.02
72772;SHT30;60894;42.544;1.516;2023-07-31T08:46:13;21.92;52.51
72772;SHT30;60894;42.544;1.516;2023-07-31T08:48:42;22.11;52.44
72772;SHT30;60894;42.544;1.516;2023-07-31T08:51:11;22.32;51.58
72772;SHT30;60894;42.544;1.516;2023-07-31T08:53:39;22.43;50.08
72772;SHT30;60894;42.544;1.516;2023-07-31T08:56:06;22.56;48.27
72772;SHT30;60894;42.544;1.516;2023-07-31T08:58:35;22.66;47.71
72772;SHT30;60894;42.544;1.516;2023-07-31T09:01:04;22.79;46.91
72772;SHT30;60894;42.544;1.516;2023-07-31T09:03:33;22.94;46.64
72772;SHT30;60894;42.544;1.516;2023-07-31T09:06:02;23.07;46.32
72772;SHT30;60894;42.544;1.516;2023-07-31T09:08:33;23.23;45.50
72772;SHT30;60894;42.544;1.516;2023-07-31T09:11:01;23.10;44.69
72772;SHT30;60894;42.544;1.516;2023-07-31T09:13:30;23.27;45.83
72772;SHT30;60894;42.544;1.516;2023-07-31T09:15:57;23.35;44.37
72772;SHT30;60894;42.544;1.516;2023-07-31T09:18:25;23.51;41.71
72772;SHT30;60894;42.544;1.516;2023-07-31T09:21:01;23.66;41.92
72772;SHT30;60894;42.544;1.516;2023-07-31T09:23:41;23.86;40.81
72772;SHT30;60894;42.544;1.516;2023-07-31T09:26:09;24.01;40.11
72772;SHT30;60894;42.544;1.516;2023-07-31T09:28:36;24.02;38.67
72772;SHT30;60894;42.544;1.516;2023-07-31T09:31:03;24.30;38.73
72772;SHT30;60894;42.544;1.516;2023-07-31T09:33:30;24.52;37.91
72772;SHT30;60894;42.544;1.516;2023-07-31T09:35:59;24.53;36.67
72772;SHT30;60894;42.544;1.516;2023-07-31T09:38:27;24.60;34.27
72772;SHT30;60894;42.544;1.516;2023-07-31T09:40:58;24.75;36.84
72772;SHT30;60894;42.544;1.516;2023-07-31T09:43:25;24.90;36.10
72772;SHT30;60894;42.544;1.516;2023-07-31T09:45:55;25.01;34.86
72772;SHT30;60894;42.544;1.516;2023-07-31T09:48:24;25.25;35.06
72772;SHT30;60894;42.544;1.516;2023-07-31T09:50:53;25.53;35.48
72772;SHT30;60894;42.544;1.516;2023-07-31T09:53:28;25.74;33.77
72772;SHT30;60894;42.544;1.516;2023-07-31T09:55:58;25.89;33.43
72772;SHT30;60894;42.544;1.516;2023-07-31T09:58:28;26.07;32.74
72772;SHT30;60894;42.544;1.516;2023-07-31T10:00:57;26.04;32.63
72772;SHT30;60894;42.544;1.516;2023-07-31T10:03:25;26.12;32.91
72772;SHT30;60894;42.544;1.516;2023-07-31T10:05:55;26.08;31.70
72772;SHT30;60894;42.544;1.516;2023-07-31T10:08:27;26.23;31.37
72772;SHT30;60894;42.544;1.516;2023-07-31T10:10:58;26.25;31.51
72772;SHT30;60894;42.544;1.516;2023-07-31T10:13:27;26.49;32.02
72772;SHT30;60894;42.544;1.516;2023-07-31T10:15:58;26.64;31.01
72772;SHT30;60894;42.544;1.516;2023-07-31T10:18:26;26.59;30.52
72772;SHT30;60894;42.544;1.516;2023-07-31T10:20:55;26.82;29.11
72772;SHT30;60894;42.544;1.516;2023-07-31T10:23:23;26.92;31.92
72772;SHT30;60894;42.544;1.516;2023-07-31T10:25:53;26.91;30.38
72772;SHT30;60894;42.544;1.516;2023-07-31T10:28:21;27.02;30.87
72772;SHT30;60894;42.544;1.516;2023-07-31T10:30:50;27.23;31.42
72772;SHT30;60894;42.544;1.516;2023-07-31T10:33:19;27.20;32.74
72772;SHT30;60894;42.544;1.516;2023-07-31T10:35:47;27.42;33.50
72772;SHT30;60894;42.544;1.516;2023-07-31T10:38:15;27.43;33.69
72772;SHT30;60894;42.544;1.516;2023-07-31T10:40:42;27.44;33.41
72772;SHT30;60894;42.544;1.516;2023-07-31T10:43:25;27.61;32.79
72772;SHT30;60894;42.544;1.516;2023-07-31T10:45:53;27.71;32.74
72772;SHT30;60894;42.544;1.516;2023-07-31T10:48:20;27.80;32.82
72772;SHT30;60894;42.544;1.516;2023-07-31T10:50:49;27.94;32.91
72772;SHT30;60894;42.544;1.516;2023-07-31T10:53:22;28.15;32.80
72772;SHT30;60894;42.544;1.516;2023-07-31T10:55:50;27.97;32.37
72772;SHT30;60894;42.544;1.516;2023-07-31T10:58:19;28.09;32.64
72772;SHT30;60894;42.544;1.516;2023-07-31T11:00:48;27.91;32.53
72772;SHT30;60894;42.544;1.516;2023-07-31T11:03:17;27.97;32.13
72772;SHT30;60894;42.544;1.516;2023-07-31T11:05:51;28.22;33.49
72772;SHT30;60894;42.544;1.516;2023-07-31T11:08:22;28.31;32.15
72772;SHT30;60894;42.544;1.516;2023-07-31T11:10:51;28.21;32.72
72772;SHT30;60894;42.544;1.516;2023-07-31T11:13:31;27.84;32.93
72772;SHT30;60894;42.544;1.516;2023-07-31T11:16:00;28.01;33.66
72772;SHT30;60894;42.544;1.516;2023-07-31T11:18:27;28.35;32.14
72772;SHT30;60894;42.544;1.516;2023-07-31T11:20:54;28.45;32.26
72772;SHT30;60894;42.544;1.516;2023-07-31T11:23:22;28.18;33.46
72772;SHT30;60894;42.544;1.516;2023-07-31T11:25:50;28.46;33.43
72772;SHT30;60894;42.544;1.516;2023-07-31T11:28:19;28.56;32.73
72772;SHT30;60894;42.544;1.516;2023-07-31T11:30:46;28.29;33.43
72772;SHT30;60894;42.544;1.516;2023-07-31T11:33:15;28.57;33.52
72772;SHT30;60894;42.544;1.516;2023-07-31T11:35:43;28.19;33.66
72772;SHT30;60894;42.544;1.516;2023-07-31T11:38:11;28.46;33.32
72772;SHT30;60894;42.544;1.516;2023-07-31T11:40:41;28.55;33.80
72772;SHT30;60894;42.544;1.516;2023-07-31T11:43:08;28.60;33.67
72772;SHT30;60894;42.544;1.516;2023-07-31T11:45:37;28.60;34.25
72772;SHT30;60894;42.544;1.516;2023-07-31T11:48:05;28.44;33.26
72772;SHT30;60894;42.544;1.516;2023-07-31T11:50:35;28.55;34.34
72772;SHT30;60894;42.544;1.516;2023-07-31T11:53:06;28.67;33.52
72772;SHT30;60894;42.544;1.516;2023-07-31T11:55:34;29.02;33.63
72772;SHT30;60894;42.544;1.516;2023-07-31T11:58:02;29.35;33.94
72772;SHT30;60894;42.544;1.516;2023-07-31T12:00:29;29.53;32.73
72772;SHT30;60894;42.544;1.516;2023-07-31T12:02:57;29.24;32.77
72772;SHT30;60894;42.544;1.516;2023-07-31T12:05:24;29.00;33.00
72772;SHT30;60894;42.544;1.516;2023-07-31T12:07:53;28.77;34.08
72772;SHT30;60894;42.544;1.516;2023-07-31T12:10:28;28.93;34.48
72772;SHT30;60894;42.544;1.516;2023-07-31T12:13:00;28.97;33.69
72772;SHT30;60894;42.544;1.516;2023-07-31T12:15:34;29.25;33.49
72772;SHT30;60894;42.544;1.516;2023-07-31T12:18:04;29.33;32.88
72772;SHT30;60894;42.544;1.516;2023-07-31T12:20:32;29.13;33.16
72772;SHT30;60894;42.544;1.516;2023-07-31T12:23:02;29.11;33.54
72772;SHT30;60894;42.544;1.516;2023-07-31T12:25:30;29.10;34.60
72772;SHT30;60894;42.544;1.516;2023-07-31T12:27:58;29.27;33.83
72772;SHT30;60894;42.544;1.516;2023-07-31T12:30:32;29.35;33.66
72772;SHT30;60894;42.544;1.516;2023-07-31T12:33:03;29.37;33.75
72772;SHT30;60894;42.544;1.516;2023-07-31T12:35:35;29.75;33.42
72772;SHT30;60894;42.544;1.516;2023-07-31T12:38:04;29.27;33.04
72772;SHT30;60894;42.544;1.516;2023-07-31T12:40:31;29.39;33.47
72772;SHT30;60894;42.544;1.516;2023-07-31T12:43:01;29.81;32.65
72772;SHT30;60894;42.544;1.516;2023-07-31T12:45:29;29.95;33.29
72772;SHT30;60894;42.544;1.516;2023-07-31T12:47:56;29.53;33.80
72772;SHT30;60894;42.544;1.516;2023-07-31T12:50:23;29.78;33.27
72772;SHT30;60894;42.544;1.516;2023-07-31T12:52:51;29.85;33.41
72772;SHT30;60894;42.544;1.516;2023-07-31T12:55:19;29.61;33.50
72772;SHT30;60894;42.544;1.516;2023-07-31T12:57:47;29.57;34.02
72772;SHT30;60894;42.544;1.516;2023-07-31T13:00:14;29.76;34.19
72772;SHT30;60894;42.544;1.516;2023-07-31T13:02:44;29.90;34.07
72772;SHT30;60894;42.544;1.516;2023-07-31T13:05:11;29.99;33.83
72772;SHT30;60894;42.544;1.516;2023-07-31T13:07:39;29.98;33.83
72772;SHT30;60894;42.544;1.516;2023-07-31T13:10:07;30.17;33.87
72772;SHT30;60894;42.544;1.516;2023-07-31T13:12:35;30.29;33.13
72772;SHT30;60894;42.544;1.516;2023-07-31T13:15:03;30.50;33.41
72772;SHT30;60894;42.544;1.516;2023-07-31T13:17:30;30.17;33.86
72772;SHT30;60894;42.544;1.516;2023-07-31T13:19:57;29.98;34.45
72772;SHT30;60894;42.544;1.516;2023-07-31T13:22:24;29.82;34.90
72772;SHT30;60894;42.544;1.516;2023-07-31T13:24:53;29.95;34.72
72772;SHT30;60894;42.544;1.516;2023-07-31T13:27:20;30.46;34.26
72772;SHT30;60894;42.544;1.516;2023-07-31T13:29:49;30.73;33.81
72772;SHT30;60894;42.544;1.516;2023-07-31T13:32:16;30.33;34.25
72772;SHT30;60894;42.544;1.516;2023-07-31T13:34:43;30.27;34.56
72772;SHT30;60894;42.544;1.516;2023-07-31T13:37:10;30.26;34.90
72772;SHT30;60894;42.544;1.516;2023-07-31T13:39:38;30.30;34.71
72772;SHT30;60894;42.544;1.516;2023-07-31T13:42:06;30.41;34.86
72772;SHT30;60894;42.544;1.516;2023-07-31T13:44:33;30.46;34.23
72772;SHT30;60894;42.544;1.516;2023-07-31T13:47:02;30.41;34.04
72772;SHT30;60894;42.544;1.516;2023-07-31T13:49:30;30.57;34.30
72772;SHT30;60894;42.544;1.516;2023-07-31T13:51:57;30.59;34.06
72772;SHT30;60894;42.544;1.516;2023-07-31T13:54:24;30.09;34.83
72772;SHT30;60894;42.544;1.516;2023-07-31T13:56:52;30.10;34.72
72772;SHT30;60894;42.544;1.516;2023-07-31T13:59:19;30.02;34.87
72772;SHT30;60894;42.544;1.516;2023-07-31T14:01:47;29.79;35.39
72772;SHT30;60894;42.544;1.516;2023-07-31T14:04:15;29.76;35.32
72772;SHT30;60894;42.544;1.516;2023-07-31T14:06:43;29.76;35.28
72772;SHT30;60894;42.544;1.516;2023-07-31T14:09:10;29.61;35.29
72772;SHT30;60894;42.544;1.516;2023-07-31T14:11:37;30.20;35.13
72772;SHT30;60894;42.544;1.516;2023-07-31T14:14:04;30.05;35.27
72772;SHT30;60894;42.544;1.516;2023-07-31T14:16:31;30.04;35.51
72772;SHT30;60894;42.544;1.516;2023-07-31T14:18:58;30.09;35.41
72772;SHT30;60894;42.544;1.516;2023-07-31T14:21:26;30.05;35.13
72772;SHT30;60894;42.544;1.516;2023-07-31T14:23:54;30.17;35.02
72772;SHT30;60894;42.544;1.516;2023-07-31T14:26:21;30.23;35.02
72772;SHT30;60894;42.544;1.516;2023-07-31T14:28:48;30.12;35.12
72772;SHT30;60894;42.544;1.516;2023-07-31T14:31:15;30.13;35.21
72772;SHT30;60894;42.544;1.516;2023-07-31T14:33:42;30.22;35.33
72772;SHT30;60894;42.544;1.516;2023-07-31T14:36:09;30.29;35.27
72772;SHT30;60894;42.544;1.516;2023-07-31T14:38:37;29.95;35.94
72772;SHT30;60894;42.544;1.516;2023-07-31T14:41:04;30.20;35.82
72772;SHT30;60894;42.544;1.516;2023-07-31T14:43:31;30.06;35.70
72772;SHT30;60894;42.544;1.516;2023-07-31T14:45:58;30.17;36.15
72772;SHT30;60894;42.544;1.516;2023-07-31T14:48:25;30.10;35.48
72772;SHT30;60894;42.544;1.516;2023-07-31T14:50:53;30.04;35.46
72772;SHT30;60894;42.544;1.516;2023-07-31T14:53:21;30.08;35.73
72772;SHT30;60894;42.544;1.516;2023-07-31T14:55:49;30.23;35.86
72772;SHT30;60894;42.544;1.516;2023-07-31T14:58:16;30.30;35.74
72772;SHT30;60894;42.544;1.516;2023-07-31T15:00:43;30.09;35.62
72772;SHT30;60894;42.544;1.516;2023-07-31T15:03:11;29.92;36.42
72772;SHT30;60894;42.544;1.516;2023-07-31T15:05:38;29.99;36.18
72772;SHT30;60894;42.544;1.516;2023-07-31T15:08:05;29.93;36.42
72772;SHT30;60894;42.544;1.516;2023-07-31T15:10:32;29.71;36.48
72772;SHT30;60894;42.544;1.516;2023-07-31T15:13:00;29.71;36.53
72772;SHT30;60894;42.544;1.516;2023-07-31T15:15:28;29.88;36.34
72772;SHT30;60894;42.544;1.516;2023-07-31T15:17:55;30.25;36.11
72772;SHT30;60894;42.544;1.516;2023-07-31T15:20:22;30.68;35.40
72772;SHT30;60894;42.544;1.516;2023-07-31T15:22:49;30.88;34.75
72772;SHT30;60894;42.544;1.516;2023-07-31T15:25:16;30.56;34.78
72772;SHT30;60894;42.544;1.516;2023-07-31T15:27:43;29.99;36.24
72772;SHT30;60894;42.544;1.516;2023-07-31T15:30:12;29.51;37.00
72772;SHT30;60894;42.544;1.516;2023-07-31T15:32:39;29.75;37.21
72772;SHT30;60894;42.544;1.516;2023-07-31T15:35:06;29.74;36.76
72772;SHT30;60894;42.544;1.516;2023-07-31T15:37:34;30.08;36.59